sensor_id;sensor_type;location;lat;lon;timestamp;P1;durP1;ratioP1;P2;durP2;ratioP2
45338;SDS011;31071;51.478;5.710;2023-05-10T00:01:20;19.67;;;10.77;;
45338;SDS011;31071;51.478;5.710;2023-05-10T00:03:46;18.63;;;11.18;;
45338;SDS011;31071;51.478;5.710;2023-05-10T00:06:11;20.05;;;11.38;;
45338;SDS011;31071;51.478;5.710;2023-05-10T00:08:37;20.02;;;11.70;;
45338;SDS011;31071;51.478;5.710;2023-05-10T00:11:02;22.33;;;12.07;;
45338;SDS011;31071;51.478;5.710;2023-05-10T00:13:28;26.27;;;12.63;;
45338;SDS011;31071;51.478;5.710;2023-05-10T00:15:53;23.27;;;12.63;;
45338;SDS011;31071;51.478;5.710;2023-05-10T00:18:19;28.20;;;13.77;;
45338;SDS011;31071;51.478;5.710;2023-05-10T00:20:45;20.98;;;13.40;;
45338;SDS011;31071;51.478;5.710;2023-05-10T00:23:11;26.40;;;13.65;;
45338;SDS011;31071;51.478;5.710;2023-05-10T00:25:36;27.73;;;14.70;;
45338;SDS011;31071;51.478;5.710;2023-05-10T00:28:02;27.45;;;15.50;;
45338;SDS011;31071;51.478;5.710;2023-05-10T00:30:28;29.15;;;16.75;;
45338;SDS011;31071;51.478;5.710;2023-05-10T00:32:53;32.70;;;16.25;;
45338;SDS011;31071;51.478;5.710;2023-05-10T00:35:19;30.50;;;17.40;;
45338;SDS011;31071;51.478;5.710;2023-05-10T00:37:44;31.67;;;17.00;;
45338;SDS011;31071;51.478;5.710;2023-05-10T00:40:10;33.83;;;17.45;;
45338;SDS011;31071;51.478;5.710;2023-05-10T00:42:36;35.95;;;19.13;;
45338;SDS011;31071;51.478;5.710;2023-05-10T00:45:01;33.00;;;18.98;;
45338;SDS011;31071;51.478;5.710;2023-05-10T00:47:27;36.30;;;18.70;;
45338;SDS011;31071;51.478;5.710;2023-05-10T00:49:53;34.42;;;19.02;;
45338;SDS011;31071;51.478;5.710;2023-05-10T00:52:20;34.53;;;19.48;;
45338;SDS011;31071;51.478;5.710;2023-05-10T00:54:48;35.83;;;18.95;;
45338;SDS011;31071;51.478;5.710;2023-05-10T00:57:14;34.75;;;19.23;;
45338;SDS011;31071;51.478;5.710;2023-05-10T00:59:39;36.63;;;18.95;;
45338;SDS011;31071;51.478;5.710;2023-05-10T01:02:06;41.95;;;19.80;;
45338;SDS011;31071;51.478;5.710;2023-05-10T01:04:31;41.50;;;21.30;;
45338;SDS011;31071;51.478;5.710;2023-05-10T01:06:58;44.47;;;21.88;;
45338;SDS011;31071;51.478;5.710;2023-05-10T01:09:24;48.63;;;23.40;;
45338;SDS011;31071;51.478;5.710;2023-05-10T01:11:51;49.83;;;23.27;;
45338;SDS011;31071;51.478;5.710;2023-05-10T01:14:18;58.53;;;26.15;;
45338;SDS011;31071;51.478;5.710;2023-05-10T01:16:44;58.17;;;26.60;;
45338;SDS011;31071;51.478;5.710;2023-05-10T01:19:17;60.03;;;27.58;;
45338;SDS011;31071;51.478;5.710;2023-05-10T01:25:09;66.03;;;30.17;;
45338;SDS011;31071;51.478;5.710;2023-05-10T01:30:35;72.95;;;31.50;;
45338;SDS011;31071;51.478;5.710;2023-05-10T01:38:53;82.38;;;36.10;;
45338;SDS011;31071;51.478;5.710;2023-05-10T01:46:37;103.18;;;40.53;;
45338;SDS011;31071;51.478;5.710;2023-05-10T01:49:08;105.90;;;40.80;;
45338;SDS011;31071;51.478;5.710;2023-05-10T01:51:47;121.13;;;42.28;;
45338;SDS011;31071;51.478;5.710;2023-05-10T01:54:17;126.50;;;43.33;;
45338;SDS011;31071;51.478;5.710;2023-05-10T01:56:44;121.93;;;42.13;;
45338;SDS011;31071;51.478;5.710;2023-05-10T01:59:15;126.88;;;42.38;;
45338;SDS011;31071;51.478;5.710;2023-05-10T02:01:44;116.18;;;41.50;;
45338;SDS011;31071;51.478;5.710;2023-05-10T02:04:11;116.80;;;41.80;;
45338;SDS011;31071;51.478;5.710;2023-05-10T02:06:40;127.97;;;44.55;;
45338;SDS011;31071;51.478;5.710;2023-05-10T02:09:08;124.10;;;42.63;;
45338;SDS011;31071;51.478;5.710;2023-05-10T02:11:36;133.55;;;45.40;;
45338;SDS011;31071;51.478;5.710;2023-05-10T02:14:03;123.40;;;44.10;;
45338;SDS011;31071;51.478;5.710;2023-05-10T02:16:33;130.30;;;44.80;;
45338;SDS011;31071;51.478;5.710;2023-05-10T02:19:01;126.30;;;43.75;;
45338;SDS011;31071;51.478;5.710;2023-05-10T02:21:28;127.03;;;45.25;;
45338;SDS011;31071;51.478;5.710;2023-05-10T02:23:55;118.07;;;45.00;;
45338;SDS011;31071;51.478;5.710;2023-05-10T02:26:22;127.43;;;45.85;;
45338;SDS011;31071;51.478;5.710;2023-05-10T02:28:50;128.60;;;46.25;;
45338;SDS011;31071;51.478;5.710;2023-05-10T02:31:16;125.90;;;44.55;;
45338;SDS011;31071;51.478;5.710;2023-05-10T02:33:43;115.18;;;44.85;;
45338;SDS011;31071;51.478;5.710;2023-05-10T02:36:10;117.35;;;43.85;;
45338;SDS011;31071;51.478;5.710;2023-05-10T02:38:38;118.38;;;44.95;;
45338;SDS011;31071;51.478;5.710;2023-05-10T02:41:04;113.07;;;43.25;;
45338;SDS011;31071;51.478;5.710;2023-05-10T02:43:33;116.88;;;46.75;;
45338;SDS011;31071;51.478;5.710;2023-05-10T02:46:00;116.88;;;46.50;;
45338;SDS011;31071;51.478;5.710;2023-05-10T02:48:26;106.85;;;45.97;;
45338;SDS011;31071;51.478;5.710;2023-05-10T02:50:52;119.88;;;47.40;;
45338;SDS011;31071;51.478;5.710;2023-05-10T02:53:22;113.95;;;46.08;;
45338;SDS011;31071;51.478;5.710;2023-05-10T02:55:53;109.32;;;45.97;;
45338;SDS011;31071;51.478;5.710;2023-05-10T02:58:23;108.93;;;47.70;;
45338;SDS011;31071;51.478;5.710;2023-05-10T03:00:49;114.63;;;47.63;;
45338;SDS011;31071;51.478;5.710;2023-05-10T03:03:15;120.70;;;46.45;;
45338;SDS011;31071;51.478;5.710;2023-05-10T03:05:40;108.57;;;44.83;;
45338;SDS011;31071;51.478;5.710;2023-05-10T03:08:06;107.90;;;46.22;;
45338;SDS011;31071;51.478;5.710;2023-05-10T03:10:32;123.38;;;49.88;;
45338;SDS011;31071;51.478;5.710;2023-05-10T03:15:47;112.20;;;46.25;;
45338;SDS011;31071;51.478;5.710;2023-05-10T03:21:09;123.15;;;48.92;;
45338;SDS011;31071;51.478;5.710;2023-05-10T03:23:44;131.45;;;53.42;;
45338;SDS011;31071;51.478;5.710;2023-05-10T03:26:14;125.38;;;52.33;;
45338;SDS011;31071;51.478;5.710;2023-05-10T03:28:43;119.28;;;50.78;;
45338;SDS011;31071;51.478;5.710;2023-05-10T03:31:09;132.50;;;49.75;;
45338;SDS011;31071;51.478;5.710;2023-05-10T03:33:35;122.25;;;51.03;;
45338;SDS011;31071;51.478;5.710;2023-05-10T03:36:10;120.25;;;49.95;;
45338;SDS011;31071;51.478;5.710;2023-05-10T03:38:35;127.28;;;52.47;;
45338;SDS011;31071;51.478;5.710;2023-05-10T03:41:01;121.57;;;49.75;;
45338;SDS011;31071;51.478;5.710;2023-05-10T03:43:26;117.85;;;48.55;;
45338;SDS011;31071;51.478;5.710;2023-05-10T03:45:52;117.55;;;49.55;;
45338;SDS011;31071;51.478;5.710;2023-05-10T03:48:17;131.30;;;50.45;;
45338;SDS011;31071;51.478;5.710;2023-05-10T03:50:43;116.57;;;47.85;;
45338;SDS011;31071;51.478;5.710;2023-05-10T03:53:08;118.32;;;48.63;;
45338;SDS011;31071;51.478;5.710;2023-05-10T03:55:34;118.63;;;48.78;;
45338;SDS011;31071;51.478;5.710;2023-05-10T03:58:01;116.82;;;50.53;;
45338;SDS011;31071;51.478;5.710;2023-05-10T04:00:26;115.63;;;49.30;;
45338;SDS011;31071;51.478;5.710;2023-05-10T04:02:52;106.30;;;47.05;;
45338;SDS011;31071;51.478;5.710;2023-05-10T04:05:17;111.50;;;46.65;;
45338;SDS011;31071;51.478;5.710;2023-05-10T04:07:43;110.50;;;46.55;;
45338;SDS011;31071;51.478;5.710;2023-05-10T04:10:09;102.95;;;44.38;;
45338;SDS011;31071;51.478;5.710;2023-05-10T04:12:35;102.82;;;43.50;;
45338;SDS011;31071;51.478;5.710;2023-05-10T04:15:00;111.72;;;47.35;;
45338;SDS011;31071;51.478;5.710;2023-05-10T04:17:26;107.55;;;46.97;;
45338;SDS011;31071;51.478;5.710;2023-05-10T04:19:52;107.53;;;45.65;;
45338;SDS011;31071;51.478;5.710;2023-05-10T04:22:19;104.95;;;45.08;;
45338;SDS011;31071;51.478;5.710;2023-05-10T04:24:45;111.07;;;46.13;;
45338;SDS011;31071;51.478;5.710;2023-05-10T04:27:10;112.15;;;46.67;;
45338;SDS011;31071;51.478;5.710;2023-05-10T04:29:36;103.00;;;43.53;;
45338;SDS011;31071;51.478;5.710;2023-05-10T04:32:03;108.30;;;45.15;;
45338;SDS011;31071;51.478;5.710;2023-05-10T04:34:29;103.78;;;43.92;;
45338;SDS011;31071;51.478;5.710;2023-05-10T04:36:54;108.00;;;43.15;;
45338;SDS011;31071;51.478;5.710;2023-05-10T04:39:20;105.35;;;43.65;;
45338;SDS011;31071;51.478;5.710;2023-05-10T04:41:45;115.65;;;45.72;;
45338;SDS011;31071;51.478;5.710;2023-05-10T04:44:11;107.22;;;44.08;;
45338;SDS011;31071;51.478;5.710;2023-05-10T04:46:36;112.43;;;44.17;;
45338;SDS011;31071;51.478;5.710;2023-05-10T04:49:02;117.20;;;44.10;;
45338;SDS011;31071;51.478;5.710;2023-05-10T04:51:27;114.00;;;43.80;;
45338;SDS011;31071;51.478;5.710;2023-05-10T04:53:53;121.47;;;44.45;;
45338;SDS011;31071;51.478;5.710;2023-05-10T04:56:18;123.10;;;45.38;;
45338;SDS011;31071;51.478;5.710;2023-05-10T04:58:44;130.65;;;46.53;;
45338;SDS011;31071;51.478;5.710;2023-05-10T05:01:09;130.73;;;47.25;;
45338;SDS011;31071;51.478;5.710;2023-05-10T05:03:35;137.00;;;49.00;;
45338;SDS011;31071;51.478;5.710;2023-05-10T05:06:01;156.15;;;52.50;;
45338;SDS011;31071;51.478;5.710;2023-05-10T05:08:27;163.10;;;53.38;;
45338;SDS011;31071;51.478;5.710;2023-05-10T05:10:53;142.93;;;50.78;;
45338;SDS011;31071;51.478;5.710;2023-05-10T05:13:19;168.90;;;56.80;;
45338;SDS011;31071;51.478;5.710;2023-05-10T05:15:45;153.70;;;55.20;;
45338;SDS011;31071;51.478;5.710;2023-05-10T05:18:10;158.98;;;56.47;;
45338;SDS011;31071;51.478;5.710;2023-05-10T05:20:36;155.20;;;56.47;;
45338;SDS011;31071;51.478;5.710;2023-05-10T05:23:01;151.73;;;54.00;;
45338;SDS011;31071;51.478;5.710;2023-05-10T05:25:27;141.98;;;49.92;;
45338;SDS011;31071;51.478;5.710;2023-05-10T05:28:05;134.75;;;51.97;;
45338;SDS011;31071;51.478;5.710;2023-05-10T05:30:31;115.00;;;45.20;;
45338;SDS011;31071;51.478;5.710;2023-05-10T05:32:56;118.90;;;47.03;;
45338;SDS011;31071;51.478;5.710;2023-05-10T05:35:22;110.05;;;45.25;;
45338;SDS011;31071;51.478;5.710;2023-05-10T05:37:47;106.47;;;43.17;;
45338;SDS011;31071;51.478;5.710;2023-05-10T05:40:13;97.63;;;41.90;;
45338;SDS011;31071;51.478;5.710;2023-05-10T05:42:39;107.00;;;42.33;;
45338;SDS011;31071;51.478;5.710;2023-05-10T05:45:04;100.95;;;42.88;;
45338;SDS011;31071;51.478;5.710;2023-05-10T05:47:30;100.30;;;42.38;;
45338;SDS011;31071;51.478;5.710;2023-05-10T05:49:56;95.45;;;41.45;;
45338;SDS011;31071;51.478;5.710;2023-05-10T05:52:21;86.20;;;39.60;;
45338;SDS011;31071;51.478;5.710;2023-05-10T05:54:47;89.85;;;39.67;;
45338;SDS011;31071;51.478;5.710;2023-05-10T05:57:12;82.60;;;38.67;;
45338;SDS011;31071;51.478;5.710;2023-05-10T05:59:43;85.10;;;38.33;;
45338;SDS011;31071;51.478;5.710;2023-05-10T06:02:15;83.45;;;38.95;;
45338;SDS011;31071;51.478;5.710;2023-05-10T06:04:41;84.35;;;37.78;;
45338;SDS011;31071;51.478;5.710;2023-05-10T06:07:06;77.18;;;37.15;;
45338;SDS011;31071;51.478;5.710;2023-05-10T06:09:32;77.65;;;37.78;;
45338;SDS011;31071;51.478;5.710;2023-05-10T06:11:57;80.80;;;36.50;;
45338;SDS011;31071;51.478;5.710;2023-05-10T06:14:23;69.32;;;35.50;;
45338;SDS011;31071;51.478;5.710;2023-05-10T06:16:48;77.95;;;36.78;;
45338;SDS011;31071;51.478;5.710;2023-05-10T06:19:14;72.60;;;35.85;;
45338;SDS011;31071;51.478;5.710;2023-05-10T06:21:40;74.95;;;34.08;;
45338;SDS011;31071;51.478;5.710;2023-05-10T06:24:05;72.18;;;35.33;;
45338;SDS011;31071;51.478;5.710;2023-05-10T06:26:31;62.13;;;31.52;;
45338;SDS011;31071;51.478;5.710;2023-05-10T06:28:57;61.50;;;32.00;;
45338;SDS011;31071;51.478;5.710;2023-05-10T06:31:23;59.72;;;30.20;;
45338;SDS011;31071;51.478;5.710;2023-05-10T06:33:48;61.28;;;31.10;;
45338;SDS011;31071;51.478;5.710;2023-05-10T06:36:14;62.35;;;32.00;;
45338;SDS011;31071;51.478;5.710;2023-05-10T06:38:39;66.97;;;32.60;;
45338;SDS011;31071;51.478;5.710;2023-05-10T06:41:05;59.30;;;31.45;;
45338;SDS011;31071;51.478;5.710;2023-05-10T06:43:31;63.55;;;31.80;;
45338;SDS011;31071;51.478;5.710;2023-05-10T06:45:56;60.63;;;30.17;;
45338;SDS011;31071;51.478;5.710;2023-05-10T06:48:22;61.35;;;30.52;;
45338;SDS011;31071;51.478;5.710;2023-05-10T06:50:47;58.63;;;31.30;;
45338;SDS011;31071;51.478;5.710;2023-05-10T06:53:13;61.22;;;30.05;;
45338;SDS011;31071;51.478;5.710;2023-05-10T06:55:39;59.10;;;29.63;;
45338;SDS011;31071;51.478;5.710;2023-05-10T06:58:04;59.30;;;29.95;;
45338;SDS011;31071;51.478;5.710;2023-05-10T07:00:30;58.83;;;29.75;;
45338;SDS011;31071;51.478;5.710;2023-05-10T07:02:55;60.78;;;31.13;;
45338;SDS011;31071;51.478;5.710;2023-05-10T07:05:21;63.50;;;31.05;;
45338;SDS011;31071;51.478;5.710;2023-05-10T07:07:46;56.03;;;30.85;;
45338;SDS011;31071;51.478;5.710;2023-05-10T07:10:12;56.75;;;29.27;;
45338;SDS011;31071;51.478;5.710;2023-05-10T07:12:38;54.08;;;29.77;;
45338;SDS011;31071;51.478;5.710;2023-05-10T07:15:04;55.00;;;29.50;;
45338;SDS011;31071;51.478;5.710;2023-05-10T07:17:30;52.00;;;29.77;;
45338;SDS011;31071;51.478;5.710;2023-05-10T07:19:55;50.40;;;28.27;;
45338;SDS011;31071;51.478;5.710;2023-05-10T07:22:21;56.80;;;30.90;;
45338;SDS011;31071;51.478;5.710;2023-05-10T07:24:46;57.13;;;31.08;;
45338;SDS011;31071;51.478;5.710;2023-05-10T07:27:12;57.80;;;30.15;;
45338;SDS011;31071;51.478;5.710;2023-05-10T07:29:38;53.20;;;30.40;;
45338;SDS011;31071;51.478;5.710;2023-05-10T07:32:03;65.10;;;33.15;;
45338;SDS011;31071;51.478;5.710;2023-05-10T07:34:29;56.53;;;31.92;;
45338;SDS011;31071;51.478;5.710;2023-05-10T07:36:57;55.15;;;32.35;;
45338;SDS011;31071;51.478;5.710;2023-05-10T07:39:23;56.78;;;31.40;;
45338;SDS011;31071;51.478;5.710;2023-05-10T07:41:49;55.47;;;30.98;;
45338;SDS011;31071;51.478;5.710;2023-05-10T07:44:15;56.22;;;30.73;;
45338;SDS011;31071;51.478;5.710;2023-05-10T07:46:43;58.20;;;31.50;;
45338;SDS011;31071;51.478;5.710;2023-05-10T07:49:08;59.45;;;31.80;;
45338;SDS011;31071;51.478;5.710;2023-05-10T07:51:34;57.22;;;31.58;;
45338;SDS011;31071;51.478;5.710;2023-05-10T07:54:00;58.20;;;32.75;;
45338;SDS011;31071;51.478;5.710;2023-05-10T07:56:28;57.20;;;32.10;;
45338;SDS011;31071;51.478;5.710;2023-05-10T07:58:55;54.20;;;30.58;;
45338;SDS011;31071;51.478;5.710;2023-05-10T08:01:21;56.53;;;31.08;;
45338;SDS011;31071;51.478;5.710;2023-05-10T08:03:47;59.42;;;32.85;;
45338;SDS011;31071;51.478;5.710;2023-05-10T08:06:14;57.90;;;31.25;;
45338;SDS011;31071;51.478;5.710;2023-05-10T08:08:43;56.40;;;31.23;;
45338;SDS011;31071;51.478;5.710;2023-05-10T08:11:16;55.60;;;31.95;;
45338;SDS011;31071;51.478;5.710;2023-05-10T08:13:42;61.75;;;31.55;;
45338;SDS011;31071;51.478;5.710;2023-05-10T08:16:08;57.53;;;30.48;;
45338;SDS011;31071;51.478;5.710;2023-05-10T08:18:34;50.38;;;31.05;;
45338;SDS011;31071;51.478;5.710;2023-05-10T08:20:59;55.38;;;30.65;;
45338;SDS011;31071;51.478;5.710;2023-05-10T08:23:25;47.55;;;28.70;;
45338;SDS011;31071;51.478;5.710;2023-05-10T08:25:50;48.72;;;27.15;;
45338;SDS011;31071;51.478;5.710;2023-05-10T08:28:16;50.97;;;28.40;;
45338;SDS011;31071;51.478;5.710;2023-05-10T08:30:41;47.58;;;28.33;;
45338;SDS011;31071;51.478;5.710;2023-05-10T08:33:07;46.85;;;26.77;;
45338;SDS011;31071;51.478;5.710;2023-05-10T08:35:38;37.15;;;23.73;;
45338;SDS011;31071;51.478;5.710;2023-05-10T08:38:09;39.70;;;22.40;;
45338;SDS011;31071;51.478;5.710;2023-05-10T08:40:36;35.53;;;22.02;;
45338;SDS011;31071;51.478;5.710;2023-05-10T08:45:32;35.65;;;21.10;;
45338;SDS011;31071;51.478;5.710;2023-05-10T08:48:01;33.10;;;19.10;;
45338;SDS011;31071;51.478;5.710;2023-05-10T08:50:30;34.55;;;18.20;;
45338;SDS011;31071;51.478;5.710;2023-05-10T08:52:57;29.08;;;17.90;;
45338;SDS011;31071;51.478;5.710;2023-05-10T08:55:25;24.30;;;15.10;;
45338;SDS011;31071;51.478;5.710;2023-05-10T08:57:51;25.58;;;15.48;;
45338;SDS011;31071;51.478;5.710;2023-05-10T09:00:18;25.50;;;15.18;;
45338;SDS011;31071;51.478;5.710;2023-05-10T09:02:44;20.52;;;12.68;;
45338;SDS011;31071;51.478;5.710;2023-05-10T09:05:11;21.92;;;13.20;;
45338;SDS011;31071;51.478;5.710;2023-05-10T09:07:37;23.33;;;12.23;;
45338;SDS011;31071;51.478;5.710;2023-05-10T09:10:02;18.83;;;11.80;;
45338;SDS011;31071;51.478;5.710;2023-05-10T09:12:29;16.08;;;10.40;;
45338;SDS011;31071;51.478;5.710;2023-05-10T09:14:55;17.38;;;9.77;;
45338;SDS011;31071;51.478;5.710;2023-05-10T09:17:24;19.42;;;9.52;;
45338;SDS011;31071;51.478;5.710;2023-05-10T09:19:56;16.80;;;9.00;;
45338;SDS011;31071;51.478;5.710;2023-05-10T09:22:26;14.65;;;8.80;;
45338;SDS011;31071;51.478;5.710;2023-05-10T09:25:03;14.07;;;9.50;;
45338;SDS011;31071;51.478;5.710;2023-05-10T09:27:30;15.70;;;9.23;;
45338;SDS011;31071;51.478;5.710;2023-05-10T09:29:55;14.80;;;9.00;;
45338;SDS011;31071;51.478;5.710;2023-05-10T09:32:21;13.32;;;9.75;;
45338;SDS011;31071;51.478;5.710;2023-05-10T09:34:46;19.98;;;10.23;;
45338;SDS011;31071;51.478;5.710;2023-05-10T09:37:15;21.38;;;10.63;;
45338;SDS011;31071;51.478;5.710;2023-05-10T09:39:40;20.08;;;11.05;;
45338;SDS011;31071;51.478;5.710;2023-05-10T09:42:07;17.10;;;10.73;;
45338;SDS011;31071;51.478;5.710;2023-05-10T09:47:31;18.42;;;10.88;;
45338;SDS011;31071;51.478;5.710;2023-05-10T09:49:57;14.32;;;10.80;;
45338;SDS011;31071;51.478;5.710;2023-05-10T09:52:28;13.25;;;9.48;;
45338;SDS011;31071;51.478;5.710;2023-05-10T09:54:54;14.48;;;9.52;;
45338;SDS011;31071;51.478;5.710;2023-05-10T09:57:20;15.18;;;8.98;;
45338;SDS011;31071;51.478;5.710;2023-05-10T09:59:47;11.77;;;8.15;;
45338;SDS011;31071;51.478;5.710;2023-05-10T10:02:14;13.57;;;8.25;;
45338;SDS011;31071;51.478;5.710;2023-05-10T10:04:40;11.75;;;7.38;;
45338;SDS011;31071;51.478;5.710;2023-05-10T10:07:06;10.93;;;6.78;;
45338;SDS011;31071;51.478;5.710;2023-05-10T10:09:33;11.15;;;6.57;;
45338;SDS011;31071;51.478;5.710;2023-05-10T10:12:00;10.45;;;6.60;;
45338;SDS011;31071;51.478;5.710;2023-05-10T10:14:27;11.75;;;7.00;;
45338;SDS011;31071;51.478;5.710;2023-05-10T10:16:53;11.70;;;7.10;;
45338;SDS011;31071;51.478;5.710;2023-05-10T10:19:19;8.48;;;6.25;;
45338;SDS011;31071;51.478;5.710;2023-05-10T10:21:46;15.20;;;8.27;;
45338;SDS011;31071;51.478;5.710;2023-05-10T10:24:12;12.82;;;9.15;;
45338;SDS011;31071;51.478;5.710;2023-05-10T10:26:37;15.02;;;10.48;;
45338;SDS011;31071;51.478;5.710;2023-05-10T10:31:47;16.02;;;11.80;;
45338;SDS011;31071;51.478;5.710;2023-05-10T10:34:25;16.73;;;12.27;;
45338;SDS011;31071;51.478;5.710;2023-05-10T10:36:53;19.58;;;12.80;;
45338;SDS011;31071;51.478;5.710;2023-05-10T10:39:21;18.45;;;13.07;;
45338;SDS011;31071;51.478;5.710;2023-05-10T10:41:51;15.18;;;13.48;;
45338;SDS011;31071;51.478;5.710;2023-05-10T10:44:33;18.48;;;13.30;;
45338;SDS011;31071;51.478;5.710;2023-05-10T10:49:42;17.27;;;12.13;;
45338;SDS011;31071;51.478;5.710;2023-05-10T10:52:24;16.30;;;12.50;;
45338;SDS011;31071;51.478;5.710;2023-05-10T10:55:00;16.73;;;11.70;;
45338;SDS011;31071;51.478;5.710;2023-05-10T10:57:41;14.70;;;11.63;;
45338;SDS011;31071;51.478;5.710;2023-05-10T11:00:29;17.80;;;11.18;;
45338;SDS011;31071;51.478;5.710;2023-05-10T11:03:03;12.35;;;10.98;;
45338;SDS011;31071;51.478;5.710;2023-05-10T11:05:50;17.42;;;10.35;;
45338;SDS011;31071;51.478;5.710;2023-05-10T11:13:30;12.50;;;9.40;;
45338;SDS011;31071;51.478;5.710;2023-05-10T11:15:58;12.82;;;9.60;;
45338;SDS011;31071;51.478;5.710;2023-05-10T11:18:36;11.98;;;8.32;;
45338;SDS011;31071;51.478;5.710;2023-05-10T11:21:02;13.32;;;8.80;;
45338;SDS011;31071;51.478;5.710;2023-05-10T11:23:47;10.93;;;8.93;;
45338;SDS011;31071;51.478;5.710;2023-05-10T11:26:14;11.25;;;7.70;;
45338;SDS011;31071;51.478;5.710;2023-05-10T11:28:43;12.15;;;8.05;;
45338;SDS011;31071;51.478;5.710;2023-05-10T11:31:10;12.73;;;8.00;;
45338;SDS011;31071;51.478;5.710;2023-05-10T11:33:44;10.55;;;9.27;;
45338;SDS011;31071;51.478;5.710;2023-05-10T11:36:11;18.75;;;14.10;;
45338;SDS011;31071;51.478;5.710;2023-05-10T11:38:39;21.02;;;16.08;;
45338;SDS011;31071;51.478;5.710;2023-05-10T11:41:04;22.60;;;16.27;;
45338;SDS011;31071;51.478;5.710;2023-05-10T11:43:30;22.83;;;17.48;;
45338;SDS011;31071;51.478;5.710;2023-05-10T11:45:56;22.40;;;17.83;;
45338;SDS011;31071;51.478;5.710;2023-05-10T11:48:21;23.05;;;16.63;;
45338;SDS011;31071;51.478;5.710;2023-05-10T11:50:48;20.83;;;16.55;;
45338;SDS011;31071;51.478;5.710;2023-05-10T11:53:14;18.45;;;14.73;;
45338;SDS011;31071;51.478;5.710;2023-05-10T11:55:40;21.23;;;15.77;;
45338;SDS011;31071;51.478;5.710;2023-05-10T11:58:05;20.60;;;14.98;;
45338;SDS011;31071;51.478;5.710;2023-05-10T12:00:31;16.92;;;14.75;;
45338;SDS011;31071;51.478;5.710;2023-05-10T12:02:57;19.35;;;14.77;;
45338;SDS011;31071;51.478;5.710;2023-05-10T12:05:23;21.48;;;14.90;;
45338;SDS011;31071;51.478;5.710;2023-05-10T12:07:49;20.35;;;14.50;;
45338;SDS011;31071;51.478;5.710;2023-05-10T12:10:14;20.45;;;15.05;;
45338;SDS011;31071;51.478;5.710;2023-05-10T12:12:43;20.80;;;13.65;;
45338;SDS011;31071;51.478;5.710;2023-05-10T12:15:17;20.10;;;15.25;;
45338;SDS011;31071;51.478;5.710;2023-05-10T12:17:47;16.15;;;14.02;;
45338;SDS011;31071;51.478;5.710;2023-05-10T12:20:14;16.90;;;14.50;;
45338;SDS011;31071;51.478;5.710;2023-05-10T12:22:41;20.55;;;16.52;;
45338;SDS011;31071;51.478;5.710;2023-05-10T12:25:09;23.40;;;17.10;;
45338;SDS011;31071;51.478;5.710;2023-05-10T12:27:35;20.40;;;16.77;;
45338;SDS011;31071;51.478;5.710;2023-05-10T12:30:01;19.67;;;15.75;;
45338;SDS011;31071;51.478;5.710;2023-05-10T12:32:40;21.98;;;14.80;;
45338;SDS011;31071;51.478;5.710;2023-05-10T12:35:06;22.77;;;14.50;;
45338;SDS011;31071;51.478;5.710;2023-05-10T12:37:33;22.02;;;14.10;;
45338;SDS011;31071;51.478;5.710;2023-05-10T12:40:03;18.60;;;13.75;;
45338;SDS011;31071;51.478;5.710;2023-05-10T12:42:34;16.50;;;12.30;;
45338;SDS011;31071;51.478;5.710;2023-05-10T12:45:01;14.10;;;11.43;;
45338;SDS011;31071;51.478;5.710;2023-05-10T12:47:27;15.10;;;11.55;;
45338;SDS011;31071;51.478;5.710;2023-05-10T12:49:53;14.85;;;11.90;;
45338;SDS011;31071;51.478;5.710;2023-05-10T12:52:18;18.17;;;12.63;;
45338;SDS011;31071;51.478;5.710;2023-05-10T12:54:44;18.13;;;12.88;;
45338;SDS011;31071;51.478;5.710;2023-05-10T12:57:09;17.17;;;13.40;;
45338;SDS011;31071;51.478;5.710;2023-05-10T12:59:35;19.52;;;12.73;;
45338;SDS011;31071;51.478;5.710;2023-05-10T13:02:00;19.77;;;13.20;;
45338;SDS011;31071;51.478;5.710;2023-05-10T13:04:26;17.20;;;13.32;;
45338;SDS011;31071;51.478;5.710;2023-05-10T13:06:51;21.83;;;14.07;;
45338;SDS011;31071;51.478;5.710;2023-05-10T13:09:17;20.90;;;13.68;;
45338;SDS011;31071;51.478;5.710;2023-05-10T13:11:42;24.83;;;16.15;;
45338;SDS011;31071;51.478;5.710;2023-05-10T13:14:08;20.58;;;16.63;;
45338;SDS011;31071;51.478;5.710;2023-05-10T13:16:33;24.65;;;17.27;;
45338;SDS011;31071;51.478;5.710;2023-05-10T13:18:59;31.10;;;18.58;;
45338;SDS011;31071;51.478;5.710;2023-05-10T13:21:24;26.02;;;18.55;;
45338;SDS011;31071;51.478;5.710;2023-05-10T13:23:50;26.88;;;18.80;;
45338;SDS011;31071;51.478;5.710;2023-05-10T13:26:16;26.80;;;18.88;;
45338;SDS011;31071;51.478;5.710;2023-05-10T13:28:41;24.58;;;17.33;;
45338;SDS011;31071;51.478;5.710;2023-05-10T13:31:07;27.17;;;17.65;;
45338;SDS011;31071;51.478;5.710;2023-05-10T13:33:33;21.98;;;17.35;;
45338;SDS011;31071;51.478;5.710;2023-05-10T13:35:58;22.48;;;17.10;;
45338;SDS011;31071;51.478;5.710;2023-05-10T13:38:24;25.65;;;17.40;;
45338;SDS011;31071;51.478;5.710;2023-05-10T13:40:49;19.08;;;14.82;;
45338;SDS011;31071;51.478;5.710;2023-05-10T13:43:17;16.38;;;13.30;;
45338;SDS011;31071;51.478;5.710;2023-05-10T13:45:43;14.55;;;12.15;;
45338;SDS011;31071;51.478;5.710;2023-05-10T13:48:08;14.00;;;11.60;;
45338;SDS011;31071;51.478;5.710;2023-05-10T13:50:34;11.63;;;10.43;;
45338;SDS011;31071;51.478;5.710;2023-05-10T13:53:00;12.18;;;10.73;;
45338;SDS011;31071;51.478;5.710;2023-05-10T13:55:25;11.35;;;10.25;;
45338;SDS011;31071;51.478;5.710;2023-05-10T13:57:51;12.18;;;10.88;;
45338;SDS011;31071;51.478;5.710;2023-05-10T14:00:19;12.25;;;9.48;;
45338;SDS011;31071;51.478;5.710;2023-05-10T14:02:45;11.00;;;9.88;;
45338;SDS011;31071;51.478;5.710;2023-05-10T14:11:36;17.63;;;14.65;;
45338;SDS011;31071;51.478;5.710;2023-05-10T14:14:01;16.05;;;13.95;;
45338;SDS011;31071;51.478;5.710;2023-05-10T14:16:27;16.45;;;14.52;;
45338;SDS011;31071;51.478;5.710;2023-05-10T14:18:53;15.10;;;13.50;;
45338;SDS011;31071;51.478;5.710;2023-05-10T14:21:18;16.05;;;13.48;;
45338;SDS011;31071;51.478;5.710;2023-05-10T14:23:44;15.95;;;13.93;;
45338;SDS011;31071;51.478;5.710;2023-05-10T14:26:10;17.85;;;15.70;;
45338;SDS011;31071;51.478;5.710;2023-05-10T14:28:35;19.10;;;16.13;;
45338;SDS011;31071;51.478;5.710;2023-05-10T14:31:01;22.10;;;16.95;;
45338;SDS011;31071;51.478;5.710;2023-05-10T14:33:27;22.10;;;17.15;;
45338;SDS011;31071;51.478;5.710;2023-05-10T14:35:53;22.80;;;17.73;;
45338;SDS011;31071;51.478;5.710;2023-05-10T14:38:21;24.58;;;18.23;;
45338;SDS011;31071;51.478;5.710;2023-05-10T14:40:47;24.80;;;18.42;;
45338;SDS011;31071;51.478;5.710;2023-05-10T14:43:12;26.23;;;18.50;;
45338;SDS011;31071;51.478;5.710;2023-05-10T14:45:38;26.23;;;17.80;;
45338;SDS011;31071;51.478;5.710;2023-05-10T14:48:03;28.42;;;19.60;;
45338;SDS011;31071;51.478;5.710;2023-05-10T14:50:29;26.60;;;18.75;;
45338;SDS011;31071;51.478;5.710;2023-05-10T14:52:56;29.58;;;20.63;;
45338;SDS011;31071;51.478;5.710;2023-05-10T14:55:22;31.38;;;20.23;;
45338;SDS011;31071;51.478;5.710;2023-05-10T14:57:47;30.10;;;20.35;;
45338;SDS011;31071;51.478;5.710;2023-05-10T15:00:15;30.58;;;21.42;;
45338;SDS011;31071;51.478;5.710;2023-05-10T15:02:41;36.00;;;22.63;;